createdAt,value
2016-08-21T00:00:25.089Z,99.01
2016-08-21T00:01:25.102Z,99.68
2016-08-21T00:02:25.025Z,99.99
2016-08-21T00:03:25.021Z,99.99
2016-08-21T00:04:25.026Z,99.99
2016-08-21T00:05:25.124Z,99.68
2016-08-21T00:06:25.044Z,99.96
2016-08-21T00:07:25.115Z,99.99
2016-08-21T00:08:25.115Z,99.99
2016-08-21T00:09:25.049Z,99.99
2016-08-21T00:10:25.044Z,99.99
2016-08-21T00:11:25.121Z,99.99
2016-08-21T00:12:25.048Z,99.99
2016-08-21T00:13:25.056Z,99.99
2016-08-21T00:14:25.062Z,99.99
2016-08-21T00:15:25.141Z,99.99
2016-08-21T00:16:25.064Z,99.99
2016-08-21T00:17:25.137Z,99.99
2016-08-21T00:18:25.151Z,99.99
2016-08-21T00:19:25.147Z,99.99
2016-08-21T00:20:25.084Z,99.99
2016-08-21T00:21:25.146Z,99.99
2016-08-21T00:22:25.152Z,99.99
2016-08-21T00:23:25.086Z,99.99
2016-08-21T00:24:25.157Z,99.99
2016-08-21T00:25:25.159Z,99.99
2016-08-21T00:26:25.088Z,99.99
2016-08-21T00:27:25.099Z,99.99
2016-08-21T00:28:25.185Z,99.99
2016-08-21T00:29:25.168Z,99.99
2016-08-21T00:30:25.103Z,99.99
2016-08-21T00:31:25.182Z,99.99
2016-08-21T00:32:25.202Z,99.99
2016-08-21T00:33:25.187Z,99.99
2016-08-21T00:34:25.115Z,99.99
2016-08-21T00:35:25.123Z,99.99
2016-08-21T00:36:25.185Z,99.99
2016-08-21T00:37:25.126Z,99.99
2016-08-21T00:38:25.514Z,99.99
2016-08-21T00:39:25.128Z,99.99
2016-08-21T00:40:25.133Z,99.99
2016-08-21T00:41:25.128Z,99.99
2016-08-21T00:42:25.213Z,99.99
2016-08-21T00:43:25.204Z,99.99
2016-08-21T00:44:25.208Z,99.99
2016-08-21T00:45:25.216Z,99.99
2016-08-21T00:46:25.226Z,99.99
2016-08-21T00:47:25.151Z,99.99
2016-08-21T00:48:25.255Z,99.99
2016-08-21T00:49:25.154Z,99.99
2016-08-21T00:50:25.154Z,99.99
2016-08-21T00:51:25.243Z,99.99
2016-08-21T00:52:25.246Z,99.99
2016-08-21T00:53:25.235Z,99.99
2016-08-21T00:54:25.242Z,99.99
2016-08-21T00:55:25.237Z,99.99
2016-08-21T00:56:25.174Z,99.99
2016-08-21T00:57:25.248Z,99.99
2016-08-21T00:58:25.175Z,99.99
2016-08-21T00:59:25.175Z,99.99
2016-08-21T01:00:25.254Z,99.99
2016-08-21T01:01:25.263Z,99.99
2016-08-21T01:02:25.196Z,99.99
2016-08-21T01:03:25.266Z,99.99
2016-08-21T01:04:25.191Z,99.99
2016-08-21T01:05:25.195Z,99.99
2016-08-21T01:06:25.269Z,99.99
2016-08-21T01:07:25.277Z,99.99
2016-08-21T01:08:25.278Z,99.99
2016-08-21T01:09:25.284Z,99.99
2016-08-21T01:10:25.282Z,99.99
2016-08-21T01:11:25.280Z,99.99
2016-08-21T01:12:25.283Z,99.99
2016-08-21T01:13:25.305Z,99.99
2016-08-21T01:14:25.222Z,99.99
2016-08-21T01:15:25.222Z,99.99
2016-08-21T01:16:25.229Z,99.99
2016-08-21T01:17:25.231Z,99.99
2016-08-21T01:18:25.241Z,99.99
2016-08-21T01:19:25.238Z,99.99
2016-08-21T01:20:25.240Z,99.99
2016-08-21T01:21:25.339Z,99.99
2016-08-21T01:22:25.245Z,99.99
2016-08-21T01:23:25.322Z,99.99
2016-08-21T01:24:25.260Z,99.99
2016-08-21T01:25:25.323Z,99.99
2016-08-21T01:26:25.256Z,99.99
2016-08-21T01:27:25.329Z,99.99
2016-08-21T01:28:25.348Z,99.99
2016-08-21T01:29:25.268Z,99.99
2016-08-21T01:30:25.269Z,99.99
2016-08-21T01:31:25.382Z,99.99
2016-08-21T01:32:25.347Z,99.99
2016-08-21T01:33:25.277Z,99.99
2016-08-21T01:34:25.361Z,99.99
2016-08-21T01:35:25.283Z,99.99
2016-08-21T01:36:25.353Z,99.99
2016-08-21T01:37:25.384Z,99.99
2016-08-21T01:38:25.359Z,99.99
2016-08-21T01:39:25.293Z,99.99
2016-08-21T01:40:25.304Z,99.99
2016-08-21T01:41:25.371Z,99.99
2016-08-21T01:42:25.370Z,99.99
2016-08-21T01:43:25.311Z,99.99
2016-08-21T01:44:25.380Z,99.99
2016-08-21T01:45:25.318Z,99.99
2016-08-21T01:46:25.322Z,99.99
2016-08-21T01:47:25.311Z,99.99
2016-08-21T01:48:25.320Z,99.99
2016-08-21T01:49:25.395Z,99.99
2016-08-21T01:50:25.401Z,99.99
2016-08-21T01:51:25.325Z,99.99
2016-08-21T01:52:25.325Z,99.99
2016-08-21T01:53:25.408Z,99.99
2016-08-21T01:54:25.333Z,99.99
2016-08-21T01:55:25.419Z,99.99
2016-08-21T01:56:25.345Z,99.99
2016-08-21T01:57:25.422Z,99.99
2016-08-21T01:58:25.426Z,99.99
2016-08-21T01:59:25.422Z,99.99
2016-08-21T02:00:25.418Z,99.99
2016-08-21T02:01:25.353Z,99.99
2016-08-21T02:02:25.353Z,99.99
2016-08-21T02:03:25.361Z,99.99
2016-08-21T02:04:25.432Z,99.99
2016-08-21T02:05:25.437Z,99.99
2016-08-21T02:06:25.446Z,99.99
2016-08-21T02:07:25.440Z,99.99
2016-08-21T02:08:25.380Z,99.99
2016-08-21T02:09:25.374Z,99.99
2016-08-21T02:10:25.380Z,99.99
2016-08-21T02:11:25.387Z,99.99
2016-08-21T02:12:25.389Z,99.99
2016-08-21T02:13:25.473Z,99.99
2016-08-21T02:14:25.491Z,99.99
2016-08-21T02:15:25.474Z,99.99
2016-08-21T02:16:25.480Z,99.99
2016-08-21T02:17:25.416Z,99.99
2016-08-21T02:18:25.488Z,99.99
2016-08-21T02:19:25.487Z,99.99
2016-08-21T02:20:25.413Z,99.99
2016-08-21T02:21:25.494Z,99.99
2016-08-21T02:22:25.492Z,99.99
2016-08-21T02:23:25.413Z,99.99
2016-08-21T02:24:25.500Z,99.99
2016-08-21T02:25:25.501Z,99.99
2016-08-21T02:26:25.429Z,99.99
2016-08-21T02:27:25.429Z,99.99
2016-08-21T02:28:25.495Z,99.99
2016-08-21T02:29:25.505Z,99.99
2016-08-21T02:30:25.516Z,99.99
2016-08-21T02:31:25.506Z,99.99
2016-08-21T02:32:25.438Z,99.99
2016-08-21T02:33:25.513Z,99.99
2016-08-21T02:34:25.445Z,99.99
2016-08-21T02:35:25.529Z,99.99
2016-08-21T02:36:25.463Z,99.99
2016-08-21T02:37:25.528Z,99.99
2016-08-21T02:38:25.454Z,99.99
2016-08-21T02:39:25.528Z,99.99
2016-08-21T02:40:25.466Z,99.99
2016-08-21T02:41:25.533Z,99.99
2016-08-21T02:42:25.545Z,99.99
2016-08-21T02:43:25.538Z,99.99
2016-08-21T02:44:25.478Z,99.99
2016-08-21T02:45:25.550Z,99.99
2016-08-21T02:46:25.564Z,99.99
2016-08-21T02:47:25.561Z,99.99
2016-08-21T02:48:25.560Z,99.99
2016-08-21T02:49:25.482Z,99.99
2016-08-21T02:50:25.497Z,99.99
2016-08-21T02:51:25.494Z,99.99
2016-08-21T02:52:25.575Z,99.99
2016-08-21T02:53:25.499Z,99.99
2016-08-21T02:54:25.502Z,99.99
2016-08-21T02:55:25.504Z,99.99
2016-08-21T02:56:25.506Z,99.99
2016-08-21T02:57:25.607Z,99.99
2016-08-21T02:58:25.518Z,99.99
2016-08-21T02:59:25.518Z,99.99
2016-08-21T03:00:25.518Z,99.99
2016-08-21T03:01:25.590Z,99.99
2016-08-21T03:02:25.521Z,99.99
2016-08-21T03:03:25.597Z,99.99
2016-08-21T03:04:25.529Z,99.99
2016-08-21T03:05:25.536Z,99.99
2016-08-21T03:06:25.616Z,99.99
2016-08-21T03:07:25.616Z,99.99
2016-08-21T03:08:25.606Z,99.99
2016-08-21T03:09:25.549Z,99.99
2016-08-21T03:10:25.554Z,99.99
2016-08-21T03:11:25.629Z,99.99
2016-08-21T03:12:25.623Z,99.99
2016-08-21T03:13:25.620Z,99.99
2016-08-21T03:14:25.553Z,99.99
2016-08-21T03:15:25.628Z,99.99
2016-08-21T03:16:25.564Z,99.99
2016-08-21T03:17:25.634Z,99.99
2016-08-21T03:18:25.655Z,99.99
2016-08-21T03:19:25.668Z,99.99
2016-08-21T03:20:25.650Z,99.99
2016-08-21T03:21:25.579Z,99.99
2016-08-21T03:22:25.648Z,99.99
2016-08-21T03:23:25.651Z,99.99
2016-08-21T03:24:25.580Z,99.99
2016-08-21T03:25:25.585Z,99.99
2016-08-21T03:26:25.584Z,99.99
2016-08-21T03:27:25.665Z,99.99
2016-08-21T03:28:25.600Z,99.99
2016-08-21T03:29:25.600Z,99.99
2016-08-21T03:30:25.600Z,99.99
2016-08-21T03:31:25.618Z,99.99
2016-08-21T03:32:25.609Z,99.99
2016-08-21T03:33:25.613Z,99.99
2016-08-21T03:34:25.686Z,99.99
2016-08-21T03:35:25.622Z,99.99
2016-08-21T03:36:25.618Z,99.99
2016-08-21T03:37:25.742Z,99.99
2016-08-21T03:38:25.707Z,99.99
2016-08-21T03:42:51.377Z,99.99
2016-08-21T03:43:51.309Z,99.99
2016-08-21T03:44:51.314Z,99.99
2016-08-21T03:45:51.389Z,99.99
2016-08-21T03:46:51.381Z,99.99
2016-08-21T03:47:51.387Z,99.99
2016-08-21T03:48:51.324Z,99.99
2016-08-21T03:49:51.398Z,99.99
2016-08-21T03:50:51.340Z,99.99
2016-08-21T03:51:51.400Z,99.99
2016-08-21T03:52:51.411Z,99.99
2016-08-21T03:53:51.337Z,99.99
2016-08-21T03:54:51.335Z,99.99
2016-08-21T03:55:51.431Z,99.99
2016-08-21T03:56:51.413Z,99.99
2016-08-21T03:57:51.433Z,99.99
2016-08-21T03:58:51.354Z,99.99
2016-08-21T03:59:51.421Z,99.99
2016-08-21T04:00:51.360Z,99.99
2016-08-21T04:01:51.357Z,99.99
2016-08-21T04:02:51.471Z,99.99
2016-08-21T04:03:51.372Z,99.99
2016-08-21T04:04:51.442Z,99.99
2016-08-21T04:05:51.374Z,99.99
2016-08-21T04:06:51.453Z,99.99
2016-08-21T04:07:51.449Z,99.99
2016-08-21T04:08:51.459Z,99.99
2016-08-21T04:09:51.393Z,99.99
2016-08-21T04:10:51.380Z,99.99
2016-08-21T04:11:51.397Z,99.99
2016-08-21T04:12:51.461Z,99.99
2016-08-21T04:13:51.478Z,99.99
2016-08-21T04:14:51.459Z,99.99
2016-08-21T04:15:51.466Z,99.99
2016-08-21T04:16:51.486Z,99.99
2016-08-21T04:17:51.479Z,99.99
2016-08-21T04:18:51.482Z,99.99
2016-08-21T04:19:51.485Z,99.99
2016-08-21T04:20:51.421Z,99.99
2016-08-21T04:21:51.485Z,99.99
2016-08-21T04:22:51.416Z,99.99
2016-08-21T04:23:51.422Z,99.99
2016-08-21T04:24:51.426Z,99.99
2016-08-21T04:25:51.504Z,99.99
2016-08-21T04:26:51.497Z,99.99
2016-08-21T04:27:51.500Z,99.99
2016-08-21T04:28:51.510Z,99.99
2016-08-21T04:29:51.507Z,99.99
2016-08-21T04:30:51.445Z,99.99
2016-08-21T04:31:51.441Z,99.99
2016-08-21T04:32:51.519Z,99.99
2016-08-21T04:33:51.517Z,99.99
2016-08-21T04:34:51.448Z,99.99
2016-08-21T04:35:51.530Z,99.99
2016-08-21T04:36:51.542Z,99.99
2016-08-21T04:37:51.541Z,99.99
2016-08-21T04:38:51.534Z,99.99
2016-08-21T04:39:51.542Z,99.99
2016-08-21T04:40:51.537Z,99.99
2016-08-21T04:41:51.468Z,99.99
2016-08-21T04:42:51.599Z,99.99
2016-08-21T04:43:51.473Z,99.99
2016-08-21T04:44:51.555Z,99.99
2016-08-21T04:45:51.477Z,99.99
2016-08-21T04:46:51.491Z,99.99
2016-08-21T04:47:51.490Z,99.99
2016-08-21T04:48:51.560Z,99.99
2016-08-21T04:49:51.488Z,99.99
2016-08-21T04:50:51.571Z,99.99
2016-08-21T04:51:51.572Z,99.99
2016-08-21T04:52:51.579Z,99.99
2016-08-21T04:53:51.515Z,99.99
2016-08-21T04:54:51.587Z,99.99
2016-08-21T04:55:51.510Z,99.99
2016-08-21T04:56:51.528Z,99.99
2016-08-21T04:57:51.523Z,99.99
2016-08-21T04:58:51.588Z,99.99
2016-08-21T04:59:51.599Z,99.99
2016-08-21T05:00:51.523Z,99.99
2016-08-21T05:01:51.523Z,99.99
2016-08-21T05:02:51.536Z,99.99
2016-08-21T05:03:51.604Z,99.99
2016-08-21T05:04:51.608Z,99.99
2016-08-21T05:05:51.612Z,99.99
2016-08-21T05:06:51.543Z,99.99
2016-08-21T05:07:51.627Z,99.99
2016-08-21T05:08:51.616Z,99.99
2016-08-21T05:09:51.546Z,99.99
2016-08-21T05:10:51.629Z,99.99
2016-08-21T05:11:51.563Z,99.99
2016-08-21T05:12:51.633Z,99.99
2016-08-21T05:13:51.625Z,99.99
2016-08-21T05:14:51.564Z,99.99
2016-08-21T05:15:51.564Z,99.99
2016-08-21T05:16:51.638Z,99.99
2016-08-21T05:17:51.644Z,99.99
2016-08-21T05:18:51.652Z,99.99
2016-08-21T05:19:51.584Z,99.99
2016-08-21T05:20:51.654Z,99.99
2016-08-21T05:21:51.580Z,99.99
2016-08-21T05:22:51.662Z,99.99
2016-08-21T05:23:51.662Z,99.99
2016-08-21T05:24:51.595Z,99.99
2016-08-21T05:25:51.673Z,99.99
2016-08-21T05:26:51.602Z,99.99
2016-08-21T05:27:51.598Z,99.99
2016-08-21T05:28:51.676Z,99.99
2016-08-21T05:29:51.602Z,99.99
2016-08-21T05:30:51.599Z,99.99
2016-08-21T05:31:51.611Z,99.99
2016-08-21T05:32:51.698Z,99.99
2016-08-21T05:33:51.689Z,99.99
2016-08-21T05:34:51.620Z,99.99
2016-08-21T05:35:51.621Z,99.99
2016-08-21T05:36:51.625Z,99.99
2016-08-21T05:37:51.624Z,99.99
2016-08-21T05:38:51.625Z,99.99
2016-08-21T05:39:51.631Z,99.99
2016-08-21T05:40:51.640Z,99.99
2016-08-21T05:41:51.648Z,99.99
2016-08-21T05:42:51.642Z,99.99
2016-08-21T05:43:51.643Z,99.99
2016-08-21T05:44:51.642Z,99.99
2016-08-21T05:45:51.652Z,99.99
2016-08-21T05:46:51.729Z,99.99
2016-08-21T05:47:51.735Z,99.99
2016-08-21T05:48:51.733Z,99.99
2016-08-21T05:49:51.671Z,99.99
2016-08-21T05:50:51.751Z,99.99
2016-08-21T05:51:51.745Z,99.99
2016-08-21T05:52:51.670Z,99.99
2016-08-21T05:53:51.667Z,99.99
2016-08-21T05:54:51.747Z,99.99
2016-08-21T05:55:51.741Z,99.99
2016-08-21T05:56:51.773Z,99.99
2016-08-21T05:57:51.766Z,99.99
2016-08-21T05:58:51.689Z,99.99
2016-08-21T05:59:51.700Z,99.99
2016-08-21T06:00:51.775Z,99.99
2016-08-21T06:01:51.770Z,99.99
2016-08-21T06:02:51.713Z,99.99
2016-08-21T06:03:51.766Z,99.99
2016-08-21T06:04:51.731Z,99.99
2016-08-21T06:05:51.776Z,99.99
2016-08-21T06:06:51.723Z,99.63
2016-08-21T06:07:51.717Z,99.82
2016-08-21T06:08:51.806Z,99.87
2016-08-21T06:09:51.814Z,99.53
2016-08-21T06:10:51.806Z,99.48
2016-08-21T06:11:51.728Z,99.29
2016-08-21T06:12:51.746Z,98.52
2016-08-21T06:13:51.801Z,98.33
2016-08-21T06:14:51.810Z,98.19
2016-08-21T06:15:51.739Z,97.85
2016-08-21T06:16:51.823Z,97.85
2016-08-21T06:17:51.823Z,97.85
2016-08-21T06:18:51.745Z,97.66
2016-08-21T06:19:51.815Z,97.61
2016-08-21T06:20:51.746Z,97.85
2016-08-21T06:21:51.744Z,97.56
2016-08-21T06:22:51.823Z,97.76
2016-08-21T06:23:51.832Z,97.56
2016-08-21T06:24:51.833Z,97.38
2016-08-21T06:25:51.760Z,98.24
2016-08-21T06:26:51.842Z,98.14
2016-08-21T06:27:51.775Z,97.95
2016-08-21T06:28:51.782Z,97.76
2016-08-21T06:29:51.775Z,97.85
2016-08-21T06:30:51.796Z,97.76
2016-08-21T06:31:51.845Z,98.05
2016-08-21T06:32:51.867Z,98.33
2016-08-21T06:33:51.855Z,97.76
2016-08-21T06:34:51.857Z,97.56
2016-08-21T06:35:51.863Z,97.95
2016-08-21T06:36:51.880Z,97.47
2016-08-21T06:37:51.877Z,97.95
2016-08-21T06:38:51.802Z,97.85
2016-08-21T06:39:51.871Z,97.85
2016-08-21T06:40:51.808Z,97.76
2016-08-21T06:41:51.804Z,98.14
2016-08-21T06:42:51.889Z,97.9
2016-08-21T06:43:51.886Z,97.61
2016-08-21T06:44:51.817Z,97.42
2016-08-21T06:45:51.819Z,97.52
2016-08-21T06:46:51.834Z,97.09
2016-08-21T06:47:51.862Z,96.99
2016-08-21T06:48:51.827Z,97.14
2016-08-21T06:49:51.834Z,97.47
2016-08-21T06:50:51.845Z,97.38
2016-08-21T06:51:51.910Z,97.66
2016-08-21T06:52:51.847Z,97.85
2016-08-21T06:53:51.915Z,97.71
2016-08-21T06:54:51.845Z,97.52
2016-08-21T06:55:51.929Z,97.71
2016-08-21T06:56:51.926Z,97.9
2016-08-21T06:57:51.928Z,97.9
2016-08-21T06:58:51.931Z,98.33
2016-08-21T06:59:51.943Z,97.61
2016-08-21T07:00:51.944Z,97.23
2016-08-21T07:01:51.862Z,96.47
2016-08-21T07:02:51.869Z,97.04
2016-08-21T07:03:51.946Z,97.04
2016-08-21T07:04:51.876Z,97.23
2016-08-21T07:05:51.965Z,96.66
2016-08-21T07:06:51.878Z,96.47
2016-08-21T07:07:51.949Z,95.89
2016-08-21T07:08:51.961Z,95.94
2016-08-21T07:09:51.888Z,95.6
2016-08-21T07:10:51.889Z,95.75
2016-08-21T07:11:51.974Z,96.32
2016-08-21T07:12:51.969Z,95.98
2016-08-21T07:13:51.906Z,95.41
2016-08-21T07:14:51.976Z,95.17
2016-08-21T07:15:51.907Z,94.79
2016-08-21T07:16:51.981Z,95.17
2016-08-21T07:17:51.910Z,94.98
2016-08-21T07:18:51.913Z,94.79
2016-08-21T07:19:51.993Z,94.21
2016-08-21T07:20:51.993Z,94.98
2016-08-21T07:21:51.922Z,95.65
2016-08-21T07:22:51.926Z,95.46
2016-08-21T07:23:52.004Z,95.65
2016-08-21T07:24:51.936Z,95.17
2016-08-21T07:25:52.013Z,94.49
2016-08-21T07:26:51.969Z,94.4
2016-08-21T07:27:52.026Z,94.21
2016-08-21T07:28:51.956Z,94.98
2016-08-21T07:29:52.039Z,95.07
2016-08-21T07:30:52.091Z,94.98
2016-08-21T07:31:51.951Z,94.98
2016-08-21T07:32:52.020Z,95.07
2016-08-21T07:33:52.038Z,95.36
2016-08-21T07:34:51.956Z,94.4
2016-08-21T07:35:52.055Z,93.97
2016-08-21T07:36:52.051Z,93.87
2016-08-21T07:37:51.969Z,93.59
2016-08-21T07:38:51.970Z,93.49
2016-08-21T07:39:52.054Z,93.87
2016-08-21T07:40:51.997Z,93.68
2016-08-21T07:41:51.980Z,93.39
2016-08-21T07:42:52.057Z,93.68
2016-08-21T07:43:52.112Z,93.68
2016-08-21T07:44:52.062Z,92.82
2016-08-21T07:45:51.992Z,93.3
2016-08-21T07:46:51.997Z,94.07
2016-08-21T07:47:52.005Z,93.63
2016-08-21T07:48:52.004Z,93.87
2016-08-21T07:49:52.001Z,93.97
2016-08-21T07:50:52.072Z,93.92
2016-08-21T07:51:52.078Z,94.07
2016-08-21T07:52:52.014Z,93.77
2016-08-21T07:53:52.010Z,93.15
2016-08-21T07:54:52.099Z,93.73
2016-08-21T07:55:52.091Z,93.01
2016-08-21T07:56:52.030Z,93.35
2016-08-21T07:57:52.115Z,93.63
2016-08-21T07:58:52.109Z,93.25
2016-08-21T07:59:52.123Z,93.01
2016-08-21T08:00:52.166Z,93.54
2016-08-21T08:01:52.119Z,92.96
2016-08-21T08:02:52.047Z,92.96
2016-08-21T08:03:52.114Z,92.68
2016-08-21T08:04:52.059Z,92.43
2016-08-21T08:05:52.123Z,92.53
2016-08-21T08:06:52.051Z,92.63
2016-08-21T08:07:52.153Z,92.33
2016-08-21T08:08:52.065Z,92.63
2016-08-21T08:09:52.131Z,92.68
2016-08-21T08:10:52.075Z,93.06
2016-08-21T08:11:52.079Z,92.33
2016-08-21T08:12:52.070Z,92.77
2016-08-21T08:13:52.106Z,93.35
2016-08-21T08:14:52.145Z,93.35
2016-08-21T08:15:52.087Z,93.15
2016-08-21T08:16:52.158Z,93.82
2016-08-21T08:17:52.157Z,93.54
2016-08-21T08:18:52.097Z,93.35
2016-08-21T08:19:52.168Z,93.54
2016-08-21T08:20:52.098Z,93.82
2016-08-21T08:21:52.174Z,94.31
2016-08-21T08:22:52.170Z,94.59
2016-08-21T08:23:52.103Z,96.51
2016-08-21T08:24:52.116Z,97.14
2016-08-21T08:25:52.189Z,97.23
2016-08-21T08:26:52.185Z,97.04
2016-08-21T08:27:52.192Z,97.23
2016-08-21T08:28:52.127Z,97.33
2016-08-21T08:29:52.121Z,97.52
2016-08-21T08:30:52.191Z,97.42
2016-08-21T08:31:52.213Z,97.42
2016-08-21T08:32:52.136Z,97.33
2016-08-21T08:33:52.206Z,97.23
2016-08-21T08:34:52.206Z,96.75
2016-08-21T08:35:52.221Z,96.47
2016-08-21T08:36:52.140Z,96.66
2016-08-21T08:37:52.145Z,96.85
2016-08-21T08:38:52.166Z,96.18
2016-08-21T08:39:52.223Z,94.98
2016-08-21T08:40:52.213Z,94.98
2016-08-21T08:41:52.237Z,94.83
2016-08-21T08:42:52.165Z,95.07
2016-08-21T08:43:52.180Z,94.98
2016-08-21T08:44:52.260Z,94.31
2016-08-21T08:45:52.230Z,94.98
2016-08-21T08:46:52.241Z,95.75
2016-08-21T08:47:52.163Z,95.6
2016-08-21T08:48:52.183Z,95.89
2016-08-21T08:49:52.183Z,95.65
2016-08-21T08:50:52.251Z,95.65
2016-08-21T08:51:52.185Z,95.17
2016-08-21T08:52:52.180Z,95.07
2016-08-21T08:53:52.263Z,94.98
2016-08-21T08:54:52.198Z,95.26
2016-08-21T08:55:52.272Z,95.75
2016-08-21T08:56:52.197Z,95.79
2016-08-21T08:57:52.272Z,95.7
2016-08-21T08:58:52.212Z,95.17
2016-08-21T08:59:52.285Z,94.98
2016-08-21T09:00:52.216Z,95.36
2016-08-21T09:01:52.214Z,95.89
2016-08-21T09:02:52.305Z,95.98
2016-08-21T09:03:52.296Z,96.18
2016-08-21T09:04:52.290Z,96.18
2016-08-21T09:05:52.354Z,96.56
2016-08-21T09:06:52.300Z,96.18
2016-08-21T09:07:52.296Z,96.27
2016-08-21T09:08:52.227Z,96.47
2016-08-21T09:09:52.318Z,96.8
2016-08-21T09:10:52.304Z,95.79
2016-08-21T09:11:52.235Z,96.27
2016-08-21T09:12:52.250Z,95.7
2016-08-21T09:13:52.249Z,95.26
2016-08-21T09:14:52.248Z,95.31
2016-08-21T09:15:52.318Z,95.89
2016-08-21T09:16:52.322Z,95.41
2016-08-21T09:17:52.341Z,95.12
2016-08-21T09:18:52.335Z,96.27
2016-08-21T09:19:52.330Z,96.18
2016-08-21T09:20:52.258Z,96.37
2016-08-21T09:21:52.268Z,96.85
2016-08-21T09:22:52.341Z,97.04
2016-08-21T09:23:52.278Z,97.81
2016-08-21T09:24:52.279Z,98.48
2016-08-21T09:25:52.277Z,99.99
2016-08-21T09:26:52.294Z,99.99
2016-08-21T09:27:52.356Z,99.99
2016-08-21T09:28:52.285Z,99.99
2016-08-21T09:29:52.356Z,99.99
2016-08-21T09:30:52.392Z,99.99
2016-08-21T09:31:52.380Z,99.99
2016-08-21T09:32:52.296Z,99.99
2016-08-21T09:33:52.381Z,99.99
2016-08-21T09:34:52.385Z,99.99
2016-08-21T09:35:52.385Z,99.99
2016-08-21T09:36:52.378Z,99.99
2016-08-21T09:37:52.378Z,99.99
2016-08-21T09:38:52.316Z,99.99
2016-08-21T09:39:52.316Z,99.99
2016-08-21T09:40:52.347Z,99.99
2016-08-21T09:41:52.392Z,99.99
2016-08-21T09:42:52.411Z,99.99
2016-08-21T09:43:52.410Z,99.99
2016-08-21T09:44:52.341Z,99.99
2016-08-21T09:45:52.331Z,99.99
2016-08-21T09:46:52.408Z,99.99
2016-08-21T09:47:52.413Z,99.99
2016-08-21T09:48:52.337Z,99.99
2016-08-21T09:49:52.425Z,99.99
2016-08-21T09:50:52.422Z,99.99
2016-08-21T09:51:52.427Z,99.99
2016-08-21T09:52:52.423Z,99.99
2016-08-21T09:53:52.362Z,99.99
2016-08-21T09:54:52.363Z,99.99
2016-08-21T09:55:52.368Z,99.99
2016-08-21T09:56:52.439Z,99.99
2016-08-21T09:57:52.449Z,99.99
2016-08-21T09:58:52.396Z,99.99
2016-08-21T09:59:52.462Z,99.99
2016-08-21T10:00:52.442Z,99.99
2016-08-21T10:01:52.464Z,99.99
2016-08-21T10:02:52.412Z,99.99
2016-08-21T10:03:52.384Z,99.99
2016-08-21T10:04:52.464Z,99.99
2016-08-21T10:05:52.471Z,99.99
2016-08-21T10:06:52.419Z,99.99
2016-08-21T10:07:52.461Z,99.99
2016-08-21T10:08:52.401Z,99.99
2016-08-21T10:09:52.472Z,99.99
2016-08-21T10:10:52.481Z,99.99
2016-08-21T10:11:52.405Z,99.99
2016-08-21T10:12:52.482Z,99.99
2016-08-21T10:13:52.410Z,99.99
2016-08-21T10:14:52.410Z,99.99
2016-08-21T10:15:52.500Z,99.99
2016-08-21T10:16:52.417Z,99.99
2016-08-21T10:17:52.503Z,99.99
2016-08-21T10:18:52.490Z,99.99
2016-08-21T10:19:52.506Z,99.99
2016-08-21T10:20:52.433Z,99.99
2016-08-21T10:21:52.509Z,99.99
2016-08-21T10:22:52.437Z,99.99
2016-08-21T10:23:52.452Z,99.99
2016-08-21T10:24:52.525Z,99.99
2016-08-21T10:25:52.451Z,99.99
2016-08-21T10:26:52.521Z,99.99
2016-08-21T10:27:52.532Z,99.99
2016-08-21T10:28:52.456Z,99.99
2016-08-21T10:29:52.458Z,99.99
2016-08-21T10:30:52.536Z,99.99
2016-08-21T10:31:52.461Z,99.99
2016-08-21T10:32:52.480Z,99.99
2016-08-21T10:33:52.465Z,99.99
2016-08-21T10:34:52.561Z,99.99
2016-08-21T10:35:52.476Z,99.99
2016-08-21T10:36:52.560Z,99.99
2016-08-21T10:37:52.553Z,99.99
2016-08-21T10:38:52.484Z,99.99
2016-08-21T10:39:52.571Z,99.99
2016-08-21T10:40:52.570Z,99.99
2016-08-21T10:41:52.573Z,99.99
2016-08-21T10:42:52.497Z,99.99
2016-08-21T10:43:52.495Z,99.99
2016-08-21T10:44:52.685Z,99.99
2016-08-21T10:45:52.502Z,99.99
2016-08-21T10:46:52.504Z,99.99
2016-08-21T10:47:52.504Z,99.99
2016-08-21T10:48:52.590Z,99.99
2016-08-21T10:49:52.599Z,99.99
2016-08-21T10:50:52.524Z,99.99
2016-08-21T10:51:52.518Z,99.99
2016-08-21T10:52:52.601Z,99.99
2016-08-21T10:53:52.590Z,99.99
2016-08-21T10:54:52.610Z,99.99
2016-08-21T10:55:52.529Z,99.99
2016-08-21T10:56:52.534Z,99.99
2016-08-21T10:57:52.604Z,99.99
2016-08-21T10:58:52.610Z,99.99
2016-08-21T10:59:52.623Z,99.99
2016-08-21T11:00:52.543Z,99.99
2016-08-21T11:01:52.627Z,99.99
2016-08-21T11:02:52.556Z,99.99
2016-08-21T11:03:52.553Z,99.99
2016-08-21T11:04:52.626Z,99.99
2016-08-21T11:05:52.573Z,99.99
2016-08-21T11:06:52.632Z,99.99
2016-08-21T11:07:52.567Z,99.99
2016-08-21T11:08:52.639Z,99.99
2016-08-21T11:09:52.641Z,99.99
2016-08-21T11:10:52.595Z,99.99
2016-08-21T11:11:52.574Z,99.99
2016-08-21T11:12:52.654Z,99.99
2016-08-21T11:13:52.657Z,99.99
2016-08-21T11:14:52.628Z,99.99
2016-08-21T11:15:52.588Z,99.99
2016-08-21T11:16:52.592Z,99.99
2016-08-21T11:17:52.592Z,99.99
2016-08-21T11:18:52.665Z,99.99
2016-08-21T11:19:52.680Z,99.99
2016-08-21T11:20:52.849Z,99.99
2016-08-21T11:21:52.612Z,99.99
2016-08-21T11:22:52.694Z,99.99
2016-08-21T11:23:52.687Z,99.99
2016-08-21T11:24:52.689Z,99.99
2016-08-21T11:25:52.754Z,99.99
2016-08-21T11:26:52.702Z,99.99
2016-08-21T11:27:52.702Z,99.99
2016-08-21T11:28:52.629Z,99.99
2016-08-21T11:29:52.701Z,99.99
2016-08-21T11:30:52.634Z,99.99
2016-08-21T11:31:52.635Z,99.99
2016-08-21T11:32:52.637Z,99.99
2016-08-21T11:33:52.711Z,99.99
2016-08-21T11:34:52.713Z,99.99
2016-08-21T11:35:52.767Z,99.99
2016-08-21T11:36:52.646Z,99.99
2016-08-21T11:37:52.793Z,99.99
2016-08-21T11:38:52.725Z,99.99
2016-08-21T11:39:52.831Z,99.99
2016-08-21T11:40:52.729Z,99.99
2016-08-21T11:41:52.669Z,99.99
2016-08-21T11:42:52.740Z,99.99
2016-08-21T11:43:52.733Z,99.99
2016-08-21T11:44:52.678Z,99.99
2016-08-21T11:45:52.679Z,99.99
2016-08-21T11:46:52.682Z,99.99
2016-08-21T11:47:52.765Z,99.99
2016-08-21T11:48:52.692Z,99.99
2016-08-21T11:49:52.691Z,99.99
2016-08-21T11:50:52.760Z,99.99
2016-08-21T11:51:52.767Z,99.99
2016-08-21T11:52:52.759Z,99.99
2016-08-21T11:53:52.699Z,99.99
2016-08-21T11:54:52.704Z,99.99
2016-08-21T11:55:52.703Z,99.99
2016-08-21T11:56:52.774Z,99.99
2016-08-21T11:57:52.716Z,99.99
2016-08-21T11:58:52.786Z,99.99
2016-08-21T11:59:52.785Z,99.99
2016-08-21T12:00:52.790Z,99.99
2016-08-21T12:01:52.795Z,99.99
2016-08-21T12:02:52.880Z,99.99
2016-08-21T12:03:53.018Z,99.99
2016-08-21T12:04:52.803Z,99.99
2016-08-21T12:05:52.819Z,99.99
2016-08-21T12:06:52.808Z,99.99
2016-08-21T12:07:52.744Z,99.99
2016-08-21T12:08:52.750Z,99.99
2016-08-21T12:09:52.771Z,99.99
2016-08-21T12:10:52.809Z,99.99
2016-08-21T12:11:52.818Z,99.99
2016-08-21T12:12:52.831Z,99.99
2016-08-21T12:13:52.768Z,99.99
2016-08-21T12:14:52.755Z,99.99
2016-08-21T12:15:52.838Z,99.99
2016-08-21T12:16:52.841Z,99.99
2016-08-21T12:17:52.762Z,99.99
2016-08-21T12:18:52.774Z,99.99
2016-08-21T12:19:52.809Z,99.99
2016-08-21T12:20:52.839Z,99.99
2016-08-21T12:21:52.865Z,99.99
2016-08-21T12:22:52.879Z,99.99
2016-08-21T12:23:52.783Z,99.99
2016-08-21T12:24:52.797Z,99.4
2016-08-21T12:25:52.868Z,99.25
2016-08-21T12:26:52.783Z,99.99
2016-08-21T12:27:52.795Z,99.99
2016-08-21T12:28:52.873Z,99.3
2016-08-21T12:29:52.817Z,99.1
2016-08-21T12:30:52.801Z,99.78
2016-08-21T12:31:52.807Z,99.99
2016-08-21T12:32:52.878Z,99.78
2016-08-21T12:33:52.809Z,99.58
2016-08-21T12:34:52.948Z,99.99
2016-08-21T12:35:52.893Z,99.99
2016-08-21T12:36:52.904Z,99.54
2016-08-21T12:37:52.824Z,99.1
2016-08-21T12:38:52.903Z,99.2
2016-08-21T12:39:52.897Z,99.3
2016-08-21T12:40:52.919Z,99.2
2016-08-21T12:41:52.843Z,99.4
2016-08-21T12:42:52.906Z,99.82
2016-08-21T12:43:52.918Z,99.4
2016-08-21T12:44:52.924Z,99.3
2016-08-21T12:45:52.970Z,98.82
2016-08-21T12:46:52.873Z,99.99
2016-08-21T12:47:52.944Z,99.58
2016-08-21T12:48:52.955Z,99.4
2016-08-21T12:49:53.864Z,98.63
2016-08-21T12:50:52.942Z,98.96
2016-08-21T12:51:52.872Z,98.48
2016-08-21T12:52:52.949Z,97.62
2016-08-21T12:53:52.874Z,95.79
2016-08-21T12:54:52.874Z,96.13
2016-08-21T12:55:52.883Z,96.9
2016-08-21T12:56:53.028Z,95.55